sensor_id;sensor_type;location;lat;lon;timestamp;pressure;altitude;pressure_sealevel;temperature;humidity
54870;BME280;40756;-37.950;145.008;2022-08-21T00:02:12;102396.19;;;11.58;33.43
54870;BME280;40756;-37.950;145.008;2022-08-21T00:04:41;102393.21;;;11.35;33.96
54870;BME280;40756;-37.950;145.008;2022-08-21T00:07:11;102392.26;;;11.49;33.07
54870;BME280;40756;-37.950;145.008;2022-08-21T00:09:41;102392.19;;;11.43;33.37
54870;BME280;40756;-37.950;145.008;2022-08-21T00:12:11;102391.84;;;10.94;32.37
54870;BME280;40756;-37.950;145.008;2022-08-21T00:14:42;102391.94;;;11.62;32.35
54870;BME280;40756;-37.950;145.008;2022-08-21T00:17:11;102390.16;;;11.63;32.66
54870;BME280;40756;-37.950;145.008;2022-08-21T00:19:41;102394.01;;;11.47;33.14
54870;BME280;40756;-37.950;145.008;2022-08-21T00:22:11;102392.48;;;11.40;33.56
54870;BME280;40756;-37.950;145.008;2022-08-21T00:24:40;102390.55;;;11.03;32.61
54870;BME280;40756;-37.950;145.008;2022-08-21T00:27:10;102385.15;;;11.88;32.21
54870;BME280;40756;-37.950;145.008;2022-08-21T00:29:40;102379.30;;;12.20;32.81
54870;BME280;40756;-37.950;145.008;2022-08-21T00:32:10;102375.48;;;12.49;31.45
54870;BME280;40756;-37.950;145.008;2022-08-21T00:34:39;102369.92;;;12.31;31.59
54870;BME280;40756;-37.950;145.008;2022-08-21T00:37:10;102374.63;;;11.95;31.03
54870;BME280;40756;-37.950;145.008;2022-08-21T00:39:40;102368.60;;;12.57;31.53
54870;BME280;40756;-37.950;145.008;2022-08-21T00:42:10;102362.74;;;12.25;31.23
54870;BME280;40756;-37.950;145.008;2022-08-21T00:44:39;102356.88;;;12.93;31.59
54870;BME280;40756;-37.950;145.008;2022-08-21T00:47:09;102355.17;;;12.83;29.53
54870;BME280;40756;-37.950;145.008;2022-08-21T00:49:39;102349.85;;;13.16;29.95
54870;BME280;40756;-37.950;145.008;2022-08-21T00:52:13;102352.76;;;13.54;30.67
54870;BME280;40756;-37.950;145.008;2022-08-21T00:54:44;102351.41;;;13.17;30.07
54870;BME280;40756;-37.950;145.008;2022-08-21T00:57:19;102347.60;;;13.72;29.57
54870;BME280;40756;-37.950;145.008;2022-08-21T00:59:51;102350.12;;;13.02;28.50
54870;BME280;40756;-37.950;145.008;2022-08-21T01:02:22;102348.06;;;13.22;28.69
54870;BME280;40756;-37.950;145.008;2022-08-21T01:04:52;102343.42;;;13.16;28.51
54870;BME280;40756;-37.950;145.008;2022-08-21T01:07:21;102339.89;;;12.99;28.33
54870;BME280;40756;-37.950;145.008;2022-08-21T01:09:51;102334.37;;;13.64;28.52
54870;BME280;40756;-37.950;145.008;2022-08-21T01:12:21;102329.34;;;12.81;29.64
54870;BME280;40756;-37.950;145.008;2022-08-21T01:14:50;102335.44;;;13.22;28.74
54870;BME280;40756;-37.950;145.008;2022-08-21T01:17:21;102333.20;;;13.44;28.53
54870;BME280;40756;-37.950;145.008;2022-08-21T01:19:51;102330.54;;;13.55;28.95
54870;BME280;40756;-37.950;145.008;2022-08-21T01:22:20;102324.31;;;13.09;28.20
54870;BME280;40756;-37.950;145.008;2022-08-21T01:24:50;102321.57;;;13.21;28.63
54870;BME280;40756;-37.950;145.008;2022-08-21T01:27:20;102315.15;;;13.52;28.84
54870;BME280;40756;-37.950;145.008;2022-08-21T01:29:54;102314.32;;;13.80;30.29
54870;BME280;40756;-37.950;145.008;2022-08-21T01:32:24;102301.26;;;12.84;28.87
54870;BME280;40756;-37.950;145.008;2022-08-21T01:34:54;102298.65;;;13.92;28.02
54870;BME280;40756;-37.950;145.008;2022-08-21T01:37:24;102300.73;;;13.84;28.07
54870;BME280;40756;-37.950;145.008;2022-08-21T01:39:54;102290.81;;;13.01;29.09
54870;BME280;40756;-37.950;145.008;2022-08-21T01:42:24;102291.09;;;13.22;27.81
54870;BME280;40756;-37.950;145.008;2022-08-21T01:44:53;102288.79;;;13.85;28.07
54870;BME280;40756;-37.950;145.008;2022-08-21T01:47:23;102286.42;;;13.71;28.15
54870;BME280;40756;-37.950;145.008;2022-08-21T01:49:53;102282.21;;;13.66;27.88
54870;BME280;40756;-37.950;145.008;2022-08-21T01:52:22;102270.34;;;14.33;27.96
54870;BME280;40756;-37.950;145.008;2022-08-21T01:54:52;102270.86;;;15.05;27.17
54870;BME280;40756;-37.950;145.008;2022-08-21T01:57:22;102266.05;;;14.93;27.57
54870;BME280;40756;-37.950;145.008;2022-08-21T01:59:51;102259.79;;;15.11;26.21
54870;BME280;40756;-37.950;145.008;2022-08-21T02:02:21;102258.68;;;15.10;26.51
54870;BME280;40756;-37.950;145.008;2022-08-21T02:04:50;102244.32;;;15.03;25.59
54870;BME280;40756;-37.950;145.008;2022-08-21T02:07:20;102249.83;;;14.13;26.35
54870;BME280;40756;-37.950;145.008;2022-08-21T02:09:50;102242.36;;;15.08;26.51
54870;BME280;40756;-37.950;145.008;2022-08-21T02:12:19;102223.88;;;15.74;25.43
54870;BME280;40756;-37.950;145.008;2022-08-21T02:14:49;102211.14;;;16.51;26.01
54870;BME280;40756;-37.950;145.008;2022-08-21T02:17:19;102202.05;;;16.77;24.22
54870;BME280;40756;-37.950;145.008;2022-08-21T02:19:49;102193.17;;;17.10;23.59
54870;BME280;40756;-37.950;145.008;2022-08-21T02:22:19;102181.83;;;17.83;23.97
54870;BME280;40756;-37.950;145.008;2022-08-21T02:24:48;102171.73;;;17.50;23.56
54870;BME280;40756;-37.950;145.008;2022-08-21T02:27:18;102160.87;;;16.55;23.68
54870;BME280;40756;-37.950;145.008;2022-08-21T02:29:48;102154.20;;;17.60;22.85
54870;BME280;40756;-37.950;145.008;2022-08-21T02:32:17;102156.78;;;17.08;23.31
54870;BME280;40756;-37.950;145.008;2022-08-21T02:34:47;102150.01;;;17.86;22.77
54870;BME280;40756;-37.950;145.008;2022-08-21T02:37:16;102147.20;;;17.36;23.87
54870;BME280;40756;-37.950;145.008;2022-08-21T02:39:47;102136.42;;;17.96;23.97
54870;BME280;40756;-37.950;145.008;2022-08-21T02:42:16;102137.62;;;18.03;23.62
54870;BME280;40756;-37.950;145.008;2022-08-21T02:44:46;102136.49;;;17.95;22.42
54870;BME280;40756;-37.950;145.008;2022-08-21T02:47:16;102131.42;;;18.49;21.78
54870;BME280;40756;-37.950;145.008;2022-08-21T02:49:45;102131.87;;;18.25;21.96
54870;BME280;40756;-37.950;145.008;2022-08-21T02:52:15;102123.77;;;18.89;20.86
54870;BME280;40756;-37.950;145.008;2022-08-21T02:54:44;102113.22;;;20.13;21.35
54870;BME280;40756;-37.950;145.008;2022-08-21T02:57:14;102116.25;;;18.28;21.05
54870;BME280;40756;-37.950;145.008;2022-08-21T02:59:43;102102.68;;;19.54;21.00
54870;BME280;40756;-37.950;145.008;2022-08-21T03:02:13;102098.73;;;19.54;21.02
54870;BME280;40756;-37.950;145.008;2022-08-21T03:04:42;102093.23;;;18.98;20.60
54870;BME280;40756;-37.950;145.008;2022-08-21T03:07:12;102093.57;;;18.64;21.14
54870;BME280;40756;-37.950;145.008;2022-08-21T03:09:41;102086.22;;;19.24;20.72
54870;BME280;40756;-37.950;145.008;2022-08-21T03:12:11;102085.92;;;19.47;20.99
54870;BME280;40756;-37.950;145.008;2022-08-21T03:14:40;102084.85;;;17.67;21.67
54870;BME280;40756;-37.950;145.008;2022-08-21T03:17:10;102080.09;;;19.15;21.85
54870;BME280;40756;-37.950;145.008;2022-08-21T03:19:39;102083.33;;;18.95;21.07
54870;BME280;40756;-37.950;145.008;2022-08-21T03:22:09;102074.30;;;19.12;20.86
54870;BME280;40756;-37.950;145.008;2022-08-21T03:24:38;102066.81;;;18.44;21.00
54870;BME280;40756;-37.950;145.008;2022-08-21T03:27:08;102064.47;;;19.19;21.20
54870;BME280;40756;-37.950;145.008;2022-08-21T03:29:38;102057.20;;;20.08;20.48
54870;BME280;40756;-37.950;145.008;2022-08-21T03:32:07;102060.58;;;19.61;21.81
54870;BME280;40756;-37.950;145.008;2022-08-21T03:34:37;102057.62;;;19.81;20.50
54870;BME280;40756;-37.950;145.008;2022-08-21T03:37:08;102051.75;;;19.91;20.60
54870;BME280;40756;-37.950;145.008;2022-08-21T03:39:37;102047.79;;;19.54;20.87
54870;BME280;40756;-37.950;145.008;2022-08-21T03:42:08;102041.84;;;18.92;21.70
54870;BME280;40756;-37.950;145.008;2022-08-21T03:44:38;102042.46;;;18.40;21.61
54870;BME280;40756;-37.950;145.008;2022-08-21T03:47:08;102040.55;;;19.53;21.44
54870;BME280;40756;-37.950;145.008;2022-08-21T03:49:38;102039.10;;;19.66;24.12
54870;BME280;40756;-37.950;145.008;2022-08-21T03:52:08;102034.20;;;20.08;20.68
54870;BME280;40756;-37.950;145.008;2022-08-21T03:54:38;102032.10;;;20.59;20.56
54870;BME280;40756;-37.950;145.008;2022-08-21T03:57:07;102032.56;;;20.65;20.34
54870;BME280;40756;-37.950;145.008;2022-08-21T03:59:37;102032.87;;;21.46;20.28
54870;BME280;40756;-37.950;145.008;2022-08-21T04:02:07;102029.27;;;21.26;20.07
54870;BME280;40756;-37.950;145.008;2022-08-21T04:04:37;102033.38;;;22.16;20.10
54870;BME280;40756;-37.950;145.008;2022-08-21T04:07:07;102029.43;;;21.31;20.49
54870;BME280;40756;-37.950;145.008;2022-08-21T04:09:36;102020.25;;;21.58;20.33
54870;BME280;40756;-37.950;145.008;2022-08-21T04:12:06;102009.72;;;21.85;19.50
54870;BME280;40756;-37.950;145.008;2022-08-21T04:14:36;102007.82;;;20.16;20.66
54870;BME280;40756;-37.950;145.008;2022-08-21T04:17:06;102003.20;;;19.39;20.81
54870;BME280;40756;-37.950;145.008;2022-08-21T04:19:35;102003.43;;;19.97;20.53
54870;BME280;40756;-37.950;145.008;2022-08-21T04:22:05;102000.21;;;21.04;20.78
54870;BME280;40756;-37.950;145.008;2022-08-21T04:24:34;102000.89;;;20.71;19.58
54870;BME280;40756;-37.950;145.008;2022-08-21T04:27:04;101997.06;;;19.83;19.78
54870;BME280;40756;-37.950;145.008;2022-08-21T04:29:33;101993.73;;;19.57;20.30
54870;BME280;40756;-37.950;145.008;2022-08-21T04:32:03;101992.66;;;20.96;19.56
54870;BME280;40756;-37.950;145.008;2022-08-21T04:34:32;101991.93;;;19.20;20.41
54870;BME280;40756;-37.950;145.008;2022-08-21T04:37:01;101996.29;;;20.21;19.99
54870;BME280;40756;-37.950;145.008;2022-08-21T04:39:31;101988.43;;;21.02;19.61
54870;BME280;40756;-37.950;145.008;2022-08-21T04:42:00;101995.66;;;18.97;21.02
54870;BME280;40756;-37.950;145.008;2022-08-21T04:44:31;101995.07;;;20.38;20.36
54870;BME280;40756;-37.950;145.008;2022-08-21T04:47:00;101994.76;;;20.20;20.45
54870;BME280;40756;-37.950;145.008;2022-08-21T04:49:30;101989.92;;;20.60;19.95
54870;BME280;40756;-37.950;145.008;2022-08-21T04:52:00;101996.45;;;20.43;19.70
54870;BME280;40756;-37.950;145.008;2022-08-21T04:54:30;101994.26;;;20.10;20.00
54870;BME280;40756;-37.950;145.008;2022-08-21T04:57:02;101990.37;;;20.25;20.28
54870;BME280;40756;-37.950;145.008;2022-08-21T04:59:38;101986.57;;;19.66;20.47
54870;BME280;40756;-37.950;145.008;2022-08-21T05:02:10;101981.81;;;20.12;20.01
54870;BME280;40756;-37.950;145.008;2022-08-21T05:04:45;101975.75;;;20.76;19.97
54870;BME280;40756;-37.950;145.008;2022-08-21T05:07:19;101974.09;;;21.02;19.96
54870;BME280;40756;-37.950;145.008;2022-08-21T05:09:49;101979.13;;;21.07;19.81
54870;BME280;40756;-37.950;145.008;2022-08-21T05:12:19;101974.62;;;20.58;19.80
54870;BME280;40756;-37.950;145.008;2022-08-21T05:14:49;101968.79;;;20.45;20.90
54870;BME280;40756;-37.950;145.008;2022-08-21T05:17:18;101966.85;;;20.16;21.19
54870;BME280;40756;-37.950;145.008;2022-08-21T05:19:48;101963.59;;;20.86;20.44
54870;BME280;40756;-37.950;145.008;2022-08-21T05:22:21;101966.35;;;19.73;20.85
54870;BME280;40756;-37.950;145.008;2022-08-21T05:24:52;101964.00;;;19.95;21.56
54870;BME280;40756;-37.950;145.008;2022-08-21T05:27:22;101965.18;;;18.47;22.67
54870;BME280;40756;-37.950;145.008;2022-08-21T05:29:51;101969.94;;;17.81;23.58
54870;BME280;40756;-37.950;145.008;2022-08-21T05:32:20;101972.85;;;18.17;24.13
54870;BME280;40756;-37.950;145.008;2022-08-21T05:34:50;101969.18;;;18.80;24.31
54870;BME280;40756;-37.950;145.008;2022-08-21T05:37:20;101965.88;;;17.98;23.61
54870;BME280;40756;-37.950;145.008;2022-08-21T05:39:49;101961.87;;;18.70;23.53
54870;BME280;40756;-37.950;145.008;2022-08-21T05:42:19;101964.53;;;17.66;23.70
54870;BME280;40756;-37.950;145.008;2022-08-21T05:44:49;101965.83;;;17.76;24.10
54870;BME280;40756;-37.950;145.008;2022-08-21T05:47:19;101965.87;;;17.86;24.54
54870;BME280;40756;-37.950;145.008;2022-08-21T05:49:49;101965.10;;;18.21;24.09
54870;BME280;40756;-37.950;145.008;2022-08-21T05:52:20;101959.56;;;17.01;25.41
54870;BME280;40756;-37.950;145.008;2022-08-21T05:54:50;101958.27;;;16.72;25.31
54870;BME280;40756;-37.950;145.008;2022-08-21T05:57:20;101955.18;;;17.13;25.68
54870;BME280;40756;-37.950;145.008;2022-08-21T05:59:49;101956.96;;;17.34;25.47
54870;BME280;40756;-37.950;145.008;2022-08-21T06:02:19;101944.29;;;15.46;26.44
54870;BME280;40756;-37.950;145.008;2022-08-21T06:04:50;101950.09;;;16.66;26.37
54870;BME280;40756;-37.950;145.008;2022-08-21T06:07:19;101954.02;;;16.65;25.93
54870;BME280;40756;-37.950;145.008;2022-08-21T06:09:49;101946.72;;;17.68;25.18
54870;BME280;40756;-37.950;145.008;2022-08-21T06:12:19;101949.10;;;17.33;25.07
54870;BME280;40756;-37.950;145.008;2022-08-21T06:14:49;101946.46;;;17.64;24.80
54870;BME280;40756;-37.950;145.008;2022-08-21T06:17:18;101933.95;;;18.71;24.40
54870;BME280;40756;-37.950;145.008;2022-08-21T06:19:51;101933.26;;;17.77;24.83
54870;BME280;40756;-37.950;145.008;2022-08-21T06:22:22;101933.93;;;17.22;24.93
54870;BME280;40756;-37.950;145.008;2022-08-21T06:24:51;101923.47;;;18.43;24.17
54870;BME280;40756;-37.950;145.008;2022-08-21T06:27:20;101925.19;;;18.07;24.35
54870;BME280;40756;-37.950;145.008;2022-08-21T06:29:50;101928.12;;;17.43;25.11
54870;BME280;40756;-37.950;145.008;2022-08-21T06:32:19;101941.43;;;16.47;26.62
54870;BME280;40756;-37.950;145.008;2022-08-21T06:34:49;101943.14;;;16.47;26.48
54870;BME280;40756;-37.950;145.008;2022-08-21T06:37:18;101945.74;;;16.54;26.32
54870;BME280;40756;-37.950;145.008;2022-08-21T06:39:48;101942.76;;;16.54;26.58
54870;BME280;40756;-37.950;145.008;2022-08-21T06:42:18;101952.85;;;15.07;28.69
54870;BME280;40756;-37.950;145.008;2022-08-21T06:44:48;101950.45;;;15.20;28.76
54870;BME280;40756;-37.950;145.008;2022-08-21T06:47:18;101955.04;;;15.21;28.57
54870;BME280;40756;-37.950;145.008;2022-08-21T06:49:47;101954.45;;;14.82;32.12
54870;BME280;40756;-37.950;145.008;2022-08-21T06:52:17;101959.23;;;15.16;29.18
54870;BME280;40756;-37.950;145.008;2022-08-21T06:54:47;101953.00;;;15.43;29.30
54870;BME280;40756;-37.950;145.008;2022-08-21T06:57:16;101947.62;;;15.20;30.02
54870;BME280;40756;-37.950;145.008;2022-08-21T06:59:46;101947.68;;;14.64;29.95
54870;BME280;40756;-37.950;145.008;2022-08-21T07:02:16;101947.41;;;13.87;31.01
54870;BME280;40756;-37.950;145.008;2022-08-21T07:04:45;101952.07;;;14.01;29.86
54870;BME280;40756;-37.950;145.008;2022-08-21T07:07:15;101952.54;;;14.16;30.11
54870;BME280;40756;-37.950;145.008;2022-08-21T07:09:45;101958.76;;;13.63;31.16
54870;BME280;40756;-37.950;145.008;2022-08-21T07:12:14;101953.58;;;14.19;31.25
54870;BME280;40756;-37.950;145.008;2022-08-21T07:14:44;101949.58;;;13.96;31.00
54870;BME280;40756;-37.950;145.008;2022-08-21T07:17:14;101954.88;;;13.75;31.80
54870;BME280;40756;-37.950;145.008;2022-08-21T07:19:43;101956.49;;;13.75;31.49
54870;BME280;40756;-37.950;145.008;2022-08-21T07:22:20;101957.06;;;13.35;31.18
54870;BME280;40756;-37.950;145.008;2022-08-21T07:24:50;101957.64;;;13.62;30.96
54870;BME280;40756;-37.950;145.008;2022-08-21T07:27:19;101954.33;;;13.76;31.22
54870;BME280;40756;-37.950;145.008;2022-08-21T07:29:49;101954.24;;;12.93;31.49
54870;BME280;40756;-37.950;145.008;2022-08-21T07:32:19;101953.49;;;13.41;31.20
54870;BME280;40756;-37.950;145.008;2022-08-21T07:34:49;101952.70;;;12.88;32.14
54870;BME280;40756;-37.950;145.008;2022-08-21T07:37:18;101953.74;;;12.56;32.30
54870;BME280;40756;-37.950;145.008;2022-08-21T07:39:48;101954.21;;;12.28;32.73
54870;BME280;40756;-37.950;145.008;2022-08-21T07:42:18;101951.23;;;13.30;32.18
54870;BME280;40756;-37.950;145.008;2022-08-21T07:44:47;101948.12;;;12.93;31.71
54870;BME280;40756;-37.950;145.008;2022-08-21T07:47:18;101949.02;;;12.57;32.42
54870;BME280;40756;-37.950;145.008;2022-08-21T07:49:48;101945.22;;;12.98;31.92
54870;BME280;40756;-37.950;145.008;2022-08-21T07:52:17;101943.04;;;13.51;31.18
54870;BME280;40756;-37.950;145.008;2022-08-21T07:54:47;101943.05;;;12.82;32.05
54870;BME280;40756;-37.950;145.008;2022-08-21T07:57:17;101941.69;;;13.14;31.35
54870;BME280;40756;-37.950;145.008;2022-08-21T07:59:47;101943.47;;;13.23;31.21
54870;BME280;40756;-37.950;145.008;2022-08-21T08:02:24;101939.04;;;14.21;35.79
54870;BME280;40756;-37.950;145.008;2022-08-21T08:04:53;101942.87;;;13.91;32.63
54870;BME280;40756;-37.950;145.008;2022-08-21T08:07:23;101936.89;;;14.13;32.16
54870;BME280;40756;-37.950;145.008;2022-08-21T08:09:52;101937.67;;;14.69;31.36
54870;BME280;40756;-37.950;145.008;2022-08-21T08:12:22;101936.82;;;13.70;30.65
54870;BME280;40756;-37.950;145.008;2022-08-21T08:14:52;101951.77;;;13.07;31.48
54870;BME280;40756;-37.950;145.008;2022-08-21T08:17:21;101942.71;;;13.24;31.47
54870;BME280;40756;-37.950;145.008;2022-08-21T08:19:51;101945.50;;;13.34;31.50
54870;BME280;40756;-37.950;145.008;2022-08-21T08:22:22;101942.72;;;13.79;32.60
54870;BME280;40756;-37.950;145.008;2022-08-21T08:24:52;101940.12;;;14.31;33.08
54870;BME280;40756;-37.950;145.008;2022-08-21T08:27:22;101939.81;;;14.45;32.75
54870;BME280;40756;-37.950;145.008;2022-08-21T08:29:52;101937.12;;;14.12;30.70
54870;BME280;40756;-37.950;145.008;2022-08-21T08:32:22;101938.34;;;13.96;30.78
54870;BME280;40756;-37.950;145.008;2022-08-21T08:34:51;101934.58;;;14.11;30.83
54870;BME280;40756;-37.950;145.008;2022-08-21T08:37:21;101934.07;;;14.29;31.05
54870;BME280;40756;-37.950;145.008;2022-08-21T08:39:51;101930.95;;;14.16;31.56
54870;BME280;40756;-37.950;145.008;2022-08-21T08:42:25;101934.15;;;13.68;31.24
54870;BME280;40756;-37.950;145.008;2022-08-21T08:44:58;101926.38;;;14.07;31.96
54870;BME280;40756;-37.950;145.008;2022-08-21T08:47:32;101928.11;;;13.49;32.03
54870;BME280;40756;-37.950;145.008;2022-08-21T08:50:06;101926.45;;;13.70;32.91
54870;BME280;40756;-37.950;145.008;2022-08-21T08:52:45;101928.53;;;13.75;32.40
54870;BME280;40756;-37.950;145.008;2022-08-21T08:55:19;101931.57;;;13.92;32.36
54870;BME280;40756;-37.950;145.008;2022-08-21T08:57:51;101936.19;;;13.65;33.19
54870;BME280;40756;-37.950;145.008;2022-08-21T09:00:22;101940.02;;;13.71;32.89
54870;BME280;40756;-37.950;145.008;2022-08-21T09:02:56;101938.11;;;13.64;33.26
54870;BME280;40756;-37.950;145.008;2022-08-21T09:05:28;101936.29;;;13.68;33.63
54870;BME280;40756;-37.950;145.008;2022-08-21T09:11:03;101936.51;;;13.60;33.74
54870;BME280;40756;-37.950;145.008;2022-08-21T09:13:41;101936.69;;;13.23;33.88
54870;BME280;40756;-37.950;145.008;2022-08-21T09:16:17;101939.25;;;13.10;34.09
54870;BME280;40756;-37.950;145.008;2022-08-21T09:18:58;101938.96;;;13.09;34.68
54870;BME280;40756;-37.950;145.008;2022-08-21T09:21:38;101933.22;;;13.17;34.66
54870;BME280;40756;-37.950;145.008;2022-08-21T09:24:22;101926.93;;;13.42;34.69
54870;BME280;40756;-37.950;145.008;2022-08-21T09:27:03;101922.63;;;13.24;34.85
54870;BME280;40756;-37.950;145.008;2022-08-21T09:29:39;101920.71;;;13.20;35.36
54870;BME280;40756;-37.950;145.008;2022-08-21T09:32:15;101921.56;;;13.10;35.21
54870;BME280;40756;-37.950;145.008;2022-08-21T09:35:00;101919.97;;;12.68;35.83
54870;BME280;40756;-37.950;145.008;2022-08-21T09:37:33;101920.06;;;12.79;35.90
54870;BME280;40756;-37.950;145.008;2022-08-21T09:40:13;101920.46;;;12.53;35.92
54870;BME280;40756;-37.950;145.008;2022-08-21T09:42:55;101915.97;;;12.60;36.06
54870;BME280;40756;-37.950;145.008;2022-08-21T09:45:26;101913.44;;;12.59;36.09
54870;BME280;40756;-37.950;145.008;2022-08-21T09:48:08;101917.01;;;13.00;35.80
54870;BME280;40756;-37.950;145.008;2022-08-21T09:50:38;101914.77;;;12.60;36.08
54870;BME280;40756;-37.950;145.008;2022-08-21T09:53:18;101911.36;;;12.68;35.99
54870;BME280;40756;-37.950;145.008;2022-08-21T09:55:52;101908.02;;;12.40;36.32
54870;BME280;40756;-37.950;145.008;2022-08-21T09:58:29;101907.65;;;12.93;36.10
54870;BME280;40756;-37.950;145.008;2022-08-21T10:01:02;101901.12;;;12.56;36.20
54870;BME280;40756;-37.950;145.008;2022-08-21T10:03:32;101894.19;;;12.74;36.46
54870;BME280;40756;-37.950;145.008;2022-08-21T10:06:03;101891.06;;;12.51;36.36
54870;BME280;40756;-37.950;145.008;2022-08-21T10:08:35;101887.66;;;12.68;36.34
54870;BME280;40756;-37.950;145.008;2022-08-21T10:11:08;101880.88;;;12.03;37.09
54870;BME280;40756;-37.950;145.008;2022-08-21T10:13:51;101887.49;;;11.97;37.33
54870;BME280;40756;-37.950;145.008;2022-08-21T10:16:30;101885.35;;;12.34;36.95
54870;BME280;40756;-37.950;145.008;2022-08-21T10:19:14;101882.74;;;12.38;36.65
54870;BME280;40756;-37.950;145.008;2022-08-21T10:21:53;101881.35;;;11.95;37.13
54870;BME280;40756;-37.950;145.008;2022-08-21T10:24:31;101886.39;;;12.30;37.60
54870;BME280;40756;-37.950;145.008;2022-08-21T10:27:13;101887.41;;;12.56;37.46
54870;BME280;40756;-37.950;145.008;2022-08-21T10:29:50;101884.63;;;11.40;38.01
54870;BME280;40756;-37.950;145.008;2022-08-21T10:32:29;101884.23;;;12.26;36.99
54870;BME280;40756;-37.950;145.008;2022-08-21T10:35:10;101883.44;;;12.16;37.01
54870;BME280;40756;-37.950;145.008;2022-08-21T10:37:52;101883.16;;;12.09;37.34
54870;BME280;40756;-37.950;145.008;2022-08-21T10:40:31;101882.53;;;11.80;37.53
54870;BME280;40756;-37.950;145.008;2022-08-21T10:43:10;101877.20;;;12.03;37.14
54870;BME280;40756;-37.950;145.008;2022-08-21T10:45:55;101872.22;;;11.93;37.50
54870;BME280;40756;-37.950;145.008;2022-08-21T10:48:32;101862.82;;;12.57;37.55
54870;BME280;40756;-37.950;145.008;2022-08-21T10:51:10;101859.80;;;12.24;37.63
54870;BME280;40756;-37.950;145.008;2022-08-21T10:53:55;101859.10;;;12.36;37.06
54870;BME280;40756;-37.950;145.008;2022-08-21T10:56:31;101858.03;;;11.89;37.45
54870;BME280;40756;-37.950;145.008;2022-08-21T10:59:15;101855.23;;;12.08;37.40
54870;BME280;40756;-37.950;145.008;2022-08-21T11:01:51;101851.64;;;12.23;37.29
54870;BME280;40756;-37.950;145.008;2022-08-21T11:04:26;101855.76;;;12.33;37.44
54870;BME280;40756;-37.950;145.008;2022-08-21T11:07:03;101852.61;;;12.70;37.17
54870;BME280;40756;-37.950;145.008;2022-08-21T11:09:45;101849.64;;;12.65;37.31
54870;BME280;40756;-37.950;145.008;2022-08-21T11:12:23;101844.88;;;12.29;37.38
54870;BME280;40756;-37.950;145.008;2022-08-21T11:14:58;101847.12;;;12.30;37.40
54870;BME280;40756;-37.950;145.008;2022-08-21T11:17:34;101844.69;;;12.36;37.43
54870;BME280;40756;-37.950;145.008;2022-08-21T11:20:13;101844.99;;;12.36;37.35
54870;BME280;40756;-37.950;145.008;2022-08-21T11:22:50;101848.50;;;12.27;37.93
54870;BME280;40756;-37.950;145.008;2022-08-21T11:25:29;101847.50;;;12.26;37.66
54870;BME280;40756;-37.950;145.008;2022-08-21T11:28:08;101844.52;;;12.21;37.76
54870;BME280;40756;-37.950;145.008;2022-08-21T11:30:46;101843.13;;;12.35;37.84
54870;BME280;40756;-37.950;145.008;2022-08-21T11:33:29;101844.62;;;11.82;38.53
54870;BME280;40756;-37.950;145.008;2022-08-21T11:36:09;101836.34;;;12.19;38.56
54870;BME280;40756;-37.950;145.008;2022-08-21T11:38:43;101834.16;;;12.59;38.27
54870;BME280;40756;-37.950;145.008;2022-08-21T11:41:24;101832.42;;;12.11;38.21
54870;BME280;40756;-37.950;145.008;2022-08-21T11:44:04;101829.71;;;11.89;38.34
54870;BME280;40756;-37.950;145.008;2022-08-21T11:46:48;101822.80;;;12.44;38.52
54870;BME280;40756;-37.950;145.008;2022-08-21T11:49:33;101820.21;;;11.99;38.79
54870;BME280;40756;-37.950;145.008;2022-08-21T11:52:12;101812.54;;;11.96;38.78
54870;BME280;40756;-37.950;145.008;2022-08-21T11:54:46;101806.83;;;11.94;38.91
54870;BME280;40756;-37.950;145.008;2022-08-21T11:57:22;101805.32;;;11.88;39.49
54870;BME280;40756;-37.950;145.008;2022-08-21T11:59:57;101802.84;;;12.45;38.82
54870;BME280;40756;-37.950;145.008;2022-08-21T12:02:33;101790.96;;;12.55;38.53
54870;BME280;40756;-37.950;145.008;2022-08-21T12:05:06;101785.79;;;11.92;38.99
54870;BME280;40756;-37.950;145.008;2022-08-21T12:07:39;101780.81;;;11.78;39.03
54870;BME280;40756;-37.950;145.008;2022-08-21T12:10:12;101775.14;;;12.33;39.04
54870;BME280;40756;-37.950;145.008;2022-08-21T12:12:44;101769.85;;;11.66;39.19
54870;BME280;40756;-37.950;145.008;2022-08-21T12:15:25;101760.68;;;12.20;39.08
54870;BME280;40756;-37.950;145.008;2022-08-21T12:18:00;101753.35;;;11.97;39.17
54870;BME280;40756;-37.950;145.008;2022-08-21T12:20:41;101740.67;;;11.45;39.56
54870;BME280;40756;-37.950;145.008;2022-08-21T12:23:26;101738.85;;;12.23;39.24
54870;BME280;40756;-37.950;145.008;2022-08-21T12:26:23;101728.31;;;11.85;39.42
54870;BME280;40756;-37.950;145.008;2022-08-21T12:29:06;101723.74;;;11.59;39.76
54870;BME280;40756;-37.950;145.008;2022-08-21T12:31:36;101724.65;;;11.43;39.79
54870;BME280;40756;-37.950;145.008;2022-08-21T12:34:16;101719.59;;;11.91;39.97
54870;BME280;40756;-37.950;145.008;2022-08-21T12:36:57;101716.16;;;11.70;40.08
54870;BME280;40756;-37.950;145.008;2022-08-21T12:39:31;101709.47;;;11.84;39.54
54870;BME280;40756;-37.950;145.008;2022-08-21T12:42:04;101699.42;;;12.08;39.45
54870;BME280;40756;-37.950;145.008;2022-08-21T12:44:39;101695.87;;;11.78;40.08
54870;BME280;40756;-37.950;145.008;2022-08-21T12:47:26;101693.24;;;10.99;40.19
54870;BME280;40756;-37.950;145.008;2022-08-21T12:50:03;101686.15;;;11.54;40.69